Etusivu
METAR-TAF:

METAR-TAF

Lentoasemat :

New Braunfels Municipal Airport

New Braunfels, Texas, Yhdysvallat

Leveyspiiri: 29-42-31N, Pituuspiiri: 098-02-43W, korkeus merenpinnasta: 197 m

Tämänhetkinen sää

Tämä raportti tehtiin 12 minuuttia sitten, kello 17.51 UTC
Tuuli 10 kn etelästä puuskistuen 17 kn:hen
Lämpötila 34°C
Kosteus 44%
Ilmanpaine 1017 hPa
Näkyvyys: 16.1 km
Hajanaisia pilviä 4800 ft:n korkeudessa
Hajanaisia pilviä 5500 ft:n korkeudessa

METAR: KBAZ 071751Z 18010G17KT 10SM SCT048 SCT055 34/20 A3003 RMK AO2 SLP159 T03440200 10361 20233 58007

Aika: 13:03 (18:03 UTC)


TAF: puuttuu

Säähavainnot ja -ennusteet yli 4000 lentoasemalta (METAR- ja TAF-raportit).

Käytössä olevat sääasemat on merkitty karttaan keltaisilla ja punaisilla pisteillä.

Aseta hiiri pisteen päälle nähdäksesi sääaseman nimen.

Klikkaa sitten nähdäksesi säähavainnot ja -ennusteet.

Kartan vaihtaminen: klikkaa mustalla rastilla varustettuja vihreitä pisteitä, niin voit zoomata sisään; viivalla varustettua vihreää pistettä, niin voit zoomata ulos tai vihreitä nuolia, niin pääset viereisille kartoille.


METAR-TAF: